Sven Berger

Olheiro - VfB Stuttgart
3 Dez 2028
Domingo
Processo

Personalidade

Adaptabilidade (2) Ambição (13) Controvérsia (20) Lealdade (15) Pressão (6) Profissionalismo (8) Espírito Esportivo (7) Temperamento (17)

Perfil

Estilo de Treinamento Democrático
Licença Nacional A
Determinação 9
Gestão de Pessoas 13
Motivação 12
Disciplina 12
Satisfação no Trabalho
100%
Fadiga
0%
Função Olheiro
Salário 64.1K p/s
Contrato 14.03.2030

Desempenho

Comportamento Bom
Eficácia do Treinamento
51%
Desenvolvimento do Jogador
55%
Prevenção de Lesões
75%
Implementação Tática
35%

Eventos Recentes

Recomendou um alvo de transferência agora
Avaliou um jogador agora
Avaliou um jogador agora
Avaliou um jogador agora
Observou uma partida agora
Observou uma partida agora
Observou uma partida agora
Observou uma partida agora

Monitorando agora

228
Jogador Clube Status Habilidade Confiança Observado Última observação Último voto
Ayyoub Bouaddi Stoke City Ativo 153 / 161 40% 3 02.12.2028 -
Mikey Moore Stockport County Ativo 143 / 153 40% 3 02.12.2028 -
Trey Nyoni Rotherham United Ativo 144 / 146 40% 8 01.12.2028 -
Jacob Peter Hödl Sturm Graz Ativo 130 / 131 40% 5 01.12.2028 -
Jake Evans Crewe Alexandra Ativo 115 / 127 40% 1 01.12.2028 -
Ben Broggio Mansfield Town Ativo 110 / 126 40% 4 29.11.2028 -
Ibrahim Fullah Charlton Athletic Ativo 124 / 133 40% 5 29.11.2028 -
Harry Gray Harrogate Town Ativo 132 / 134 40% 2 29.11.2028 -
Luca Williams-Barnett Walsall Ativo 133 / 129 40% 3 28.11.2028 -
Amin Nabizada Exeter City Ativo 119 / 128 40% 2 28.11.2028 -
Ryan McAidoo Oldham Athletic Ativo 126 / 140 40% 5 27.11.2028 -
Harrison Armstrong Ipswich Town Ativo 137 / 141 40% 2 27.11.2028 -
Jake Richards Barrow AFC Ativo 119 / 127 40% 1 27.11.2028 -
Lisandro Piñero Banfield Ativo 130 / 132 40% 2 26.11.2028 -
Mateus Mané Burnley Ativo 153 / 148 40% 11 24.11.2028 -
Aarón Ochoa Málaga Ativo 120 / 131 40% 3 24.11.2028 -
Sean Steur Rotherham United Ativo 127 / 136 40% 2 24.11.2028 -
Andrija Bulatović Chamois Niortais Ativo 138 / 137 40% 3 20.11.2028 -
Mihajlo Cvetković Club Brugge Ativo 131 / 132 40% 2 20.11.2028 -
Hugo Camberos Dorados Ativo 130 / 148 40% 4 18.11.2028 -
Dieguinho Grêmio Ativo 120 / 128 40% 1 18.11.2028 -
Eduardo Fernandes Benfica Ativo 124 / 136 40% 2 15.11.2028 -
Peyton Miller New England Revolution Ativo 120 / 132 40% 1 15.11.2028 -
Miguel Figueiredo Benfica Ativo 131 / 139 40% 2 14.11.2028 -
Philipp Maybach Red Bull Salzburg Ativo 119 / 127 40% 3 14.11.2028 -
Matías Arias Vélez Ativo 118 / 125 40% 1 14.11.2028 -
Celías Ingenthron Platense Ativo 114 / 115 40% 2 13.11.2028 -
Estêvão Portsmouth Ativo 152 / 164 40% 3 13.11.2028 -
Álvaro Montoro Botafogo Ativo 132 / 146 40% 9 11.11.2028 -
Mateo Aguiar Tigre Ativo 109 / 126 40% 2 10.11.2028 -
Robinho Junior Flamengo Ativo 122 / 133 40% 1 08.11.2028 -
Tyler Fletcher Rotherham United Ativo 120 / 121 40% 5 06.11.2028 -
Adrian Lahdo Empoli Ativo 129 / 135 40% 1 06.11.2028 -
Leart Kabashi Luzern Ativo 115 / 131 40% 2 03.11.2028 -
Andrija Maksimović VfL Wolfsburg Ativo 136 / 139 40% 4 02.11.2028 -
Lucca São Paulo Ativo 126 / 115 40% 1 02.11.2028 -
Ryan Kavuma-McQueen Accrington Stanley Ativo 119 / 134 40% 1 02.11.2028 -
Alex Verón Vélez Ativo 110 / 113 40% 3 01.11.2028 -
Konstantinos Karetsas Borussia Dortmund Ativo 135 / 142 40% 1 01.11.2028 -
Babis Kostoulas Oxford United Ativo 155 / 145 40% 5 31.10.2028 -
Jorge Salinas Racing Santander Ativo 136 / 137 40% 3 30.10.2028 -
Rio Ngumoha Plymouth Argyle Ativo 140 / 148 40% 3 30.10.2028 -
Yan Diomandé Oviedo Ativo 161 / 171 40% 6 29.10.2028 -
Lennart Karl TSG Hoffenheim Ativo 150 / 163 40% 1 27.10.2028 -
André Miranda Porto Ativo 125 / 120 40% 2 26.10.2028 -
Tahiel Peralta Racing Club Ativo 116 / 113 40% 1 26.10.2028 -
Henrique Carmo Sochi Ativo 145 / 133 40% 4 24.10.2028 -
Sebastian Rodriguez Houston Dynamo Ativo 118 / 142 40% 3 23.10.2028 -
Ibrahim Mbaye Queens Park Rangers Ativo 139 / 151 40% 2 16.10.2028 -
Gilberto Mora Guadalajara Ativo 136 / 155 40% 1 16.10.2028 -
Mustafa Hekimoğlu Antalyaspor Ativo 136 / 128 40% 3 12.10.2028 -
Arthur De Lima Central Coast Mariners Ativo 126 / 126 40% 2 12.10.2028 -
Honest Ahanor Atalanta Ativo 136 / 141 40% 2 11.10.2028 -
Marc Bernal Sevilla Ativo 155 / 163 40% 6 11.10.2028 -
Luis Otávio Orlando City Ativo 105 / 107 40% 1 08.10.2028 -
Gabriel Sloane-Rodrigues Team Wellington Ativo 122 / 138 40% 1 06.10.2028 -
Kauã Moraes Flamengo Ativo 136 / 136 40% 1 30.08.2028 -
Geovany Quenda Watford Ativo 154 / 155 40% 1 30.08.2028 -
Lukas Klostermann Mainz 05 Relatório pronto 141 / 153 72% 1 28.08.2028 -
Abubacarr Sedi Kinteh Al-Ahli Ativo 132 / 142 40% 1 28.08.2028 -
Daniel Banjaqui Benfica Ativo 129 / 129 40% 5 21.08.2028 -
Maximilian Beier Borussia Dortmund Relatório pronto 164 / 149 72% 1 21.08.2028 -
Davinchi Getafe Ativo 123 / 133 40% 1 21.08.2028 -
Pharell Hensel VfL Wolfsburg Ativo 122 / 114 40% 1 21.08.2028 -
Jorthy Mokio ADO Den Haag Ativo 135 / 134 40% 2 07.08.2028 -
Haine Eames Brisbane Roar Ativo 120 / 138 40% 1 07.08.2028 -
Ryunosuke Sato Eibar Ativo 140 / 130 40% 3 30.07.2028 -
Gabriel Mec Feirense Ativo 131 / 141 40% 2 29.07.2028 -
Igor Tyjon Barrow AFC Ativo 126 / 136 40% 5 28.07.2028 -
Kerim Alajbegović Modena Ativo 140 / 150 40% 2 26.07.2028 -
Woo-Yeong Jeong Union Berlin Perdido 149 / 145 72% 1 24.07.2028 -
Isaque Obolon Ativo 133 / 135 40% 1 24.07.2028 -
Paulinho Borussia Dortmund Relatório pronto 150 / 144 72% 1 17.07.2028 -
Luca Meirelles Kudrivka Ativo 123 / 117 40% 3 15.07.2028 -
Giovanni Cantizano Fulham Ativo 120 / 130 40% 1 15.07.2028 -
Endrick Boca Juniors Ativo 164 / 172 40% 2 14.07.2028 -
Rafael Camacho Sporting CP Ativo 107 / 113 40% 1 14.07.2028 -
Rayan Hamburger SV Ativo 148 / 147 40% 3 10.07.2028 -
Oskar Pietuszewski Estrela da Amadora Ativo 136 / 142 40% 2 10.07.2028 -
Daniel Peretz Wolverhampton Ativo 145 / 142 40% 1 10.07.2028 -
Berke Özer LOSC Lille Ativo 139 / 138 40% 1 10.07.2028 -
Christos Mouzakitis Hull City Ativo 137 / 145 40% 3 08.07.2028 -
Jan Virgili Club Brugge Ativo 146 / 150 40% 6 06.07.2028 -
Héctor Fort Real Sociedad Ativo 140 / 149 40% 2 06.07.2028 -
Gabe Forsyth Colchester United Ativo 117 / 124 40% 3 06.07.2028 -
Alphadjo Cissé Lecce Ativo 129 / 146 40% 1 05.07.2028 -
Ethan Nwaneri Arsenal Ativo 151 / 163 40% 4 03.07.2028 -
Rémi Himbert AC Ajaccio Ativo 123 / 120 40% 2 03.07.2028 -
Anthony Patterson Wrexham Ativo 141 / 143 40% 1 03.07.2028 -
Moritz Nicolas Borussia Mönchengladbach Ativo 141 / 155 40% 1 03.07.2028 -
Matt Freese Shakhtar Negociando 143 / 153 40% 1 03.07.2028 -
Saïd El Mala Köln Rejeitado 145 / 152 72% 5 02.07.2028 -
Shea Lacey Crystal Palace Ativo 134 / 142 40% 1 02.07.2028 -
Otto Stange Borussia Mönchengladbach Ativo 130 / 126 40% 1 29.06.2028 -
Jamal Iddrissou Pergolettese Ativo 109 / 116 40% 2 28.06.2028 -
Radek Vítek Middlesbrough Perdido 147 / 145 40% 1 26.06.2028 -
Christos Mandas Lazio Perdido 145 / 145 40% 1 26.06.2028 -
Kamil Grabara VfL Wolfsburg Perdido 144 / 139 40% 1 26.06.2028 -
Gomolemo Kekana Maritzburg United Ativo 122 / 122 40% 1 25.06.2028 -
Suleman Sani Werder Bremen Ativo 135 / 140 40% 1 22.06.2028 -
Pau Cubarsí Real Sociedad Ativo 164 / 172 40% 3 19.06.2028 -
Kilian Nikiéma ADO Den Haag Ativo 136 / 133 40% 1 19.06.2028 -
Gregor Kobel Borussia Dortmund Ativo 170 / 161 40% 1 19.06.2028 -
Cezary Miszta Rio Ave Ativo 144 / 136 40% 1 19.06.2028 -
Romelle Donovan Brentford Ativo 136 / 129 40% 5 18.06.2028 -
Siyabonga Mabena Bidvest Wits Ativo 121 / 119 40% 1 14.06.2028 -
Gabriel Martinelli Arsenal Ativo 172 / 173 40% 1 13.06.2028 -
Lucas Høgsberg RC Strasbourg Ativo 145 / 145 40% 6 12.06.2028 -
Mohamed Amoura VfL Wolfsburg Relatório pronto 153 / 144 72% 1 12.06.2028 -
João Simões Sporting CP Perdido 145 / 144 40% 1 12.06.2028 -
Josh Nichols Oldham Athletic Ativo 122 / 133 40% 1 12.06.2028 -
Eli Junior Kroupi Bournemouth Ativo 142 / 155 40% 1 05.06.2028 -
Serge Gnabry Bayern Munich Relatório pronto 156 / 165 72% 1 04.06.2028 -
Maarten Vandevoordt RB Leipzig Ativo 148 / 157 40% 2 02.06.2028 -
Mark Travers Leicester City Ativo 150 / 148 40% 1 02.06.2028 -
Andriy Lunin Sevilla Ativo 160 / 160 40% 1 02.06.2028 -
Largie Ramazani Leeds United Ativo 144 / 142 40% 1 31.05.2028 -
Morgan Rogers Chelsea Ativo 167 / 159 40% 1 31.05.2028 -
Arthur Bayer Leverkusen Ativo 141 / 133 72% 1 04.01.2028 -
Caleb Yirenkyi Coventry City Ativo 145 / 146 40% 6 02.01.2028 -
Ayden Heaven Portsmouth Ativo 151 / 155 40% 1 02.01.2028 -
William Gomes Porto Ativo 150 / 155 40% 6 21.06.2027 -
Izan Merino Málaga Ativo 122 / 125 40% 3 21.06.2027 -
Ethan Williams Peterborough United Ativo 116 / 110 40% 2 07.06.2027 -
Oscar Schwartau Norwich City Ativo 118 / 129 40% 3 07.06.2027 -
Gonçalo Oliveira Benfica Ativo 114 / 114 40% 3 31.05.2027 -
Yussif Saidu Zaragoza Ativo 128 / 124 40% 5 31.05.2027 -
Leo Castledine Middlesbrough Ativo 131 / 125 40% 5 30.05.2027 -
Jeff Ekhator Juventus Ativo 134 / 140 40% 4 30.05.2027 -
Edmund Baidoo St. Gallen Ativo 126 / 135 40% 4 30.05.2027 -
Ibrahim Maza Bayer Leverkusen Ativo 144 / 151 40% 9 29.05.2027 -
Rafael Moreno Atletico Venezuela Ativo 101 / 121 40% 2 29.05.2027 -
Samuele di Benedetto Twente Ativo 110 / 112 40% 4 27.05.2027 -
Givairo Read Feyenoord Ativo 142 / 148 40% 4 27.05.2027 -
Alex Scott Bournemouth Ativo 149 / 157 40% 4 26.05.2027 -
Ousmane Diomande Nottingham Forest Ativo 151 / 149 40% 3 26.05.2027 -
Brooke Norton-Cuffy Hull City Ativo 138 / 134 40% 1 26.05.2027 -
Senny Mayulu Paris Saint-Germain Ativo 146 / 144 40% 4 25.05.2027 -
Sam Amo-Ameyaw RC Strasbourg Ativo 128 / 134 40% 2 24.05.2027 -
Gorka Gorosabel Real Sociedad Ativo 104 / 109 40% 2 24.05.2027 -
Othmane Maamma Watford Ativo 125 / 130 40% 3 22.05.2027 -
Max Johnston Derby County Ativo 128 / 135 40% 3 22.05.2027 -
Kees Smit AZ Ativo 140 / 148 40% 3 20.05.2027 -
Max Caputo Melbourne City Ativo 117 / 109 40% 2 16.05.2027 -
Ben Ahmed Kohili Paradou Ativo 95 / 93 40% 2 16.05.2027 -
Bence Dárdai VfL Wolfsburg Ativo 126 / 139 40% 1 16.05.2027 -
Jesús Vázquez Valencia Ativo 141 / 141 40% 4 15.05.2027 -
Javi Guerra Valencia Ativo 141 / 152 40% 1 15.05.2027 -
Ilaix Moriba Celta Ativo 154 / 156 40% 2 13.05.2027 -
Nnamdi Collins Eintracht Frankfurt Ativo 139 / 130 40% 1 13.05.2027 -
Omar El Hilali Espanyol Ativo 144 / 149 40% 1 13.05.2027 -
Jarrad Branthwaite Everton Ativo 158 / 160 40% 2 12.05.2027 -
Marc Pubill Atlético Madrid Ativo 151 / 145 40% 1 12.05.2027 -
Lewis Hall Newcastle United Ativo 150 / 157 40% 4 10.05.2027 -
Juanlu Bournemouth Ativo 147 / 147 40% 3 10.05.2027 -
Nico O'Reilly Manchester City Ativo 150 / 147 40% 3 09.05.2027 -
Sindre Walle Egeli Udinese Ativo 134 / 133 40% 2 06.05.2027 -
Olívio Tomé Benfica Ativo 112 / 121 40% 1 06.05.2027 -
Tino Livramento Newcastle United Ativo 152 / 158 40% 4 05.05.2027 -
Yehor Yarmoliuk Brentford Ativo 143 / 160 40% 5 05.05.2027 -
Jan Bürger Northampton Town Ativo 109 / 110 40% 2 04.05.2027 -
Castello Lukeba RB Leipzig Ativo 155 / 144 40% 1 04.05.2027 -
Ryan Gravenberch Liverpool Ativo 157 / 162 40% 6 03.05.2027 -
Lorenzo Amatucci Deportivo La Coruña Ativo 130 / 135 40% 2 03.05.2027 -
Álex Lizancos Burgos Ativo 126 / 123 40% 1 03.05.2027 -
Toby Collyer West Bromwich Albion Ativo 136 / 141 40% 1 30.04.2027 -
Nikolaus Wurmbrand Girona Ativo 124 / 136 40% 2 28.04.2027 -
Bosun Lawal Stoke City Ativo 130 / 129 40% 1 28.04.2027 -
Mohamadou Kanté Crawley Town Ativo 116 / 115 40% 3 27.04.2027 -
Victor Froholdt Porto Ativo 150 / 163 40% 1 22.04.2027 -
Miloš Kerkez Liverpool Ativo 157 / 156 40% 1 22.04.2027 -
Levi Colwill Chelsea Ativo 155 / 165 40% 1 20.04.2027 -
Adam Wharton Crystal Palace Ativo 147 / 149 40% 1 20.04.2027 -
Kike Salas Sevilla Ativo 148 / 146 40% 1 14.04.2027 -
Mathys Tel Tottenham Ativo 137 / 145 40% 1 12.04.2027 -
Kobbie Mainoo Manchester United Ativo 157 / 150 40% 6 11.04.2027 -
João Neves Paris Saint-Germain Ativo 171 / 167 40% 2 11.04.2027 -
Pablo Barrios Atlético Madrid Ativo 162 / 153 40% 1 11.04.2027 -
Rocco Vata Watford Ativo 127 / 116 40% 2 09.04.2027 -
Will Lankshear Middlesbrough Ativo 116 / 133 40% 1 09.04.2027 -
Emirhan Başyiğit Sivasspor Ativo 107 / 106 40% 1 09.04.2027 -
Ryan Oné Sheffield United Ativo 114 / 112 40% 1 05.04.2027 -
Pau Navarro Villarreal Ativo 137 / 137 40% 2 04.04.2027 -
Chemsdine Talbi Sunderland Ativo 141 / 152 40% 3 03.04.2027 -
Illaijh de Ruijter ADO Den Haag Ativo 109 / 116 40% 2 03.04.2027 -
Malick Fofana Sunderland Ativo 150 / 156 40% 1 25.03.2027 -
Joaquin Seys Club Brugge Ativo 129 / 129 40% 1 22.03.2027 -
David Mella Deportivo La Coruña Ativo 124 / 132 40% 1 10.03.2027 -
Antonio Nusa RB Leipzig Ativo 145 / 143 40% 1 04.03.2027 -
Antoni Milambo Brentford Ativo 135 / 148 40% 1 01.03.2027 -
Wouter Burger TSG Hoffenheim Ativo 149 / 135 40% 2 31.12.2026 -
Anthony Caci Mainz 05 Ativo 143 / 138 40% 2 12.11.2026 -
Aleix García Bayer Leverkusen Ativo 144 / 149 40% 2 11.11.2026 -
Alexis Mac Allister Liverpool Ativo 161 / 168 40% 3 11.11.2026 -
Rodri Barcelona Ativo 178 / 177 40% 4 03.11.2026 -
José Ángel Carmona Sevilla Ativo 146 / 151 40% 1 03.11.2026 -
Kim Min-Jae Bayern Munich Ativo 162 / 159 40% 3 01.11.2026 -
Felix Nmecha Borussia Dortmund Ativo 163 / 151 40% 3 31.10.2026 -
David Raum RB Leipzig Ativo 149 / 141 40% 3 31.10.2026 -
Gavi Barcelona Ativo 157 / 162 40% 2 29.10.2026 -
Óscar Mingueza Crystal Palace Ativo 155 / 154 40% 1 28.10.2026 -
Bernardo TSG Hoffenheim Ativo 147 / 152 40% 1 28.10.2026 -
Mats Wieffer Brighton Ativo 146 / 152 40% 1 28.10.2026 -
William Saliba Arsenal Ativo 170 / 184 40% 2 25.10.2026 -
Frenkie de Jong Barcelona Ativo 168 / 163 40% 1 25.10.2026 -
Julian Ryerson Borussia Dortmund Ativo 152 / 157 40% 1 24.10.2026 -
Alphonso Davies Bayern Munich Ativo 162 / 167 40% 4 20.10.2026 -
Amadou Onana Aston Villa Ativo 155 / 147 40% 1 14.10.2026 -
Dominik Szoboszlai Liverpool Ativo 171 / 158 40% 2 13.10.2026 -
Marc Guéhi Manchester City Ativo 169 / 168 40% 1 13.10.2026 -
Moisés Caicedo Chelsea Ativo 164 / 159 40% 1 03.10.2026 -
Nico Schlotterbeck Borussia Dortmund Ativo 160 / 156 40% 1 03.10.2026 -
Joško Gvardiol Manchester City Ativo 167 / 168 40% 2 01.10.2026 -
Rúben Dias Manchester City Ativo 164 / 170 40% 1 01.10.2026 -
Jeremie Frimpong Liverpool Ativo 159 / 164 40% 2 29.09.2026 -
Wesley Fofana Chelsea Ativo 157 / 159 40% 1 29.09.2026 -
Pedro Porro Tottenham Ativo 143 / 155 40% 1 29.09.2026 -
Noussair Mazraoui Manchester United Ativo 157 / 140 40% 1 26.09.2026 -
Sven Botman Newcastle United Ativo 155 / 150 40% 2 25.09.2026 -
Enzo Fernández Manchester City Ativo 170 / 165 40% 1 24.09.2026 -
Loïc Badé Bayer Leverkusen Ativo 147 / 140 40% 1 22.09.2026 -
Youri Tielemans Manchester United Ativo 156 / 150 40% 1 19.09.2026 -
Jurriën Timber Arsenal Ativo 157 / 163 40% 1 19.09.2026 -
Ibrahima Konaté Real Madrid Ativo 152 / 168 40% 1 17.09.2026 -
Denzel Dumfries Real Madrid Ativo 160 / 150 40% 1 14.09.2026 -
Alejandro Grimaldo Atlético Madrid Ativo 162 / 160 40% 2 13.09.2026 -
Gabriel Arsenal Ativo 174 / 161 40% 1 13.09.2026 -
Martin Terrier Bayer Leverkusen Ativo 138 / 131 72% 1 03.08.2026 Aprovar